DEVICE NETWORK
Gateway Status
13 ESP · realtime ~1s · history 60s
Weather
WS-MOD-01
OFFLINE
Actuator
ACT-MOD-01
OFFLINE
Mainboard L3
MB-L3-01
ONLINE
Mainboard L5
MB-L5-01
OFFLINE
Remote AC
AC-REMOTE-01
OFFLINE
PZEM L3-01
PWR-L3-01
OFFLINE
PZEM L3-02
PWR-L3-02
OFFLINE
PZEM L3-03
PWR-L3-03
OFFLINE
PZEM L3-04
PWR-L3-04
OFFLINE
PZEM L5-01
PWR-L5-01
OFFLINE
PZEM L5-02
PWR-L5-02
OFFLINE
PZEM L5-03
PWR-L5-03
OFFLINE
PZEM L5-04
PWR-L5-04
OFFLINE
REPORT FILTER
DATABASE HISTORY
Periode & Sensor
REPORT RESULT
Data Sensor
31/08/2026 — 06/09/2026
EXPORT CSV
| NO | TANGGAL | WAKTU | DEVICE | CHANNEL | SENSOR | VALUE | UNIT |
|---|---|---|---|---|---|---|---|
| 2401 | 06/09/2026 | 17:11:00 | MB-L3-01Mainboard Lantai 3 | L3-LUX-02 | Illuminance / LUX 2 | 113.50 | lux |
| 2402 | 06/09/2026 | 17:11:00 | MB-L3-01Mainboard Lantai 3 | L3-LUX-05 | Illuminance / LUX 5 | 357.80 | lux |
| 2403 | 06/09/2026 | 17:11:00 | MB-L3-01Mainboard Lantai 3 | L3-LUX-01 | Illuminance / LUX 1 | 77.40 | lux |
| 2404 | 06/09/2026 | 17:11:00 | MB-L3-01Mainboard Lantai 3 | L3-LUX-06 | Illuminance / LUX 6 | 260.60 | lux |
| 2405 | 06/09/2026 | 17:11:00 | MB-L3-01Mainboard Lantai 3 | L3-LUX-03 | Illuminance / LUX 3 | 131.00 | lux |
| 2406 | 06/09/2026 | 17:11:00 | MB-L3-01Mainboard Lantai 3 | L3-LUX-04 | Illuminance / LUX 4 | 74.60 | lux |
| 2407 | 06/09/2026 | 17:11:00 | MB-L3-01Mainboard Lantai 3 | L3-SHT-02-RH | SHT20 2 Humidity | 41.20 | %RH |
| 2408 | 06/09/2026 | 17:11:00 | MB-L3-01Mainboard Lantai 3 | L3-SHT-03-T | SHT20 3 Temperature | 29.90 | °C |
| 2409 | 06/09/2026 | 17:11:00 | MB-L3-01Mainboard Lantai 3 | L3-AI-06 | Analog Input 6 | 3.12 | V |
| 2410 | 06/09/2026 | 17:11:00 | MB-L3-01Mainboard Lantai 3 | L3-SHT-03-RH | SHT20 3 Humidity | 41.80 | %RH |
| 2411 | 06/09/2026 | 17:11:00 | MB-L3-01Mainboard Lantai 3 | L3-AI-05 | Analog Input 5 | 3.12 | V |
| 2412 | 06/09/2026 | 17:11:00 | MB-L3-01Mainboard Lantai 3 | L3-AI-04 | Analog Input 4 | 3.12 | V |
| 2413 | 06/09/2026 | 17:11:00 | MB-L3-01Mainboard Lantai 3 | L3-SHT-01-T | SHT20 1 Temperature | 29.80 | °C |
| 2414 | 06/09/2026 | 17:11:00 | MB-L3-01Mainboard Lantai 3 | L3-SHT-02-T | SHT20 2 Temperature | 30.00 | °C |
| 2415 | 06/09/2026 | 17:11:00 | MB-L3-01Mainboard Lantai 3 | L3-AI-03 | Analog Input 3 | 3.12 | V |
| 2416 | 06/09/2026 | 17:10:00 | MB-L3-01Mainboard Lantai 3 | L3-LUX-02 | Illuminance / LUX 2 | 116.40 | lux |
| 2417 | 06/09/2026 | 17:10:00 | MB-L3-01Mainboard Lantai 3 | L3-LUX-05 | Illuminance / LUX 5 | 369.20 | lux |
| 2418 | 06/09/2026 | 17:10:00 | MB-L3-01Mainboard Lantai 3 | L3-LUX-01 | Illuminance / LUX 1 | 79.70 | lux |
| 2419 | 06/09/2026 | 17:10:00 | MB-L3-01Mainboard Lantai 3 | L3-LUX-06 | Illuminance / LUX 6 | 268.80 | lux |
| 2420 | 06/09/2026 | 17:10:00 | MB-L3-01Mainboard Lantai 3 | L3-LUX-03 | Illuminance / LUX 3 | 133.70 | lux |
| 2421 | 06/09/2026 | 17:10:00 | MB-L3-01Mainboard Lantai 3 | L3-LUX-04 | Illuminance / LUX 4 | 76.50 | lux |
| 2422 | 06/09/2026 | 17:10:00 | MB-L3-01Mainboard Lantai 3 | L3-SHT-02-RH | SHT20 2 Humidity | 41.20 | %RH |
| 2423 | 06/09/2026 | 17:10:00 | MB-L3-01Mainboard Lantai 3 | L3-SHT-03-T | SHT20 3 Temperature | 29.90 | °C |
| 2424 | 06/09/2026 | 17:10:00 | MB-L3-01Mainboard Lantai 3 | L3-AI-06 | Analog Input 6 | 3.12 | V |
| 2425 | 06/09/2026 | 17:10:00 | MB-L3-01Mainboard Lantai 3 | L3-SHT-03-RH | SHT20 3 Humidity | 41.60 | %RH |
| 2426 | 06/09/2026 | 17:10:00 | MB-L3-01Mainboard Lantai 3 | L3-AI-05 | Analog Input 5 | 3.12 | V |
| 2427 | 06/09/2026 | 17:10:00 | MB-L3-01Mainboard Lantai 3 | L3-AI-04 | Analog Input 4 | 3.12 | V |
| 2428 | 06/09/2026 | 17:10:00 | MB-L3-01Mainboard Lantai 3 | L3-SHT-01-T | SHT20 1 Temperature | 29.80 | °C |
| 2429 | 06/09/2026 | 17:10:00 | MB-L3-01Mainboard Lantai 3 | L3-SHT-02-T | SHT20 2 Temperature | 29.90 | °C |
| 2430 | 06/09/2026 | 17:10:00 | MB-L3-01Mainboard Lantai 3 | L3-AI-03 | Analog Input 3 | 3.12 | V |
| 2431 | 06/09/2026 | 17:10:00 | MB-L3-01Mainboard Lantai 3 | L3-AI-02 | Analog Input 2 | 3.12 | V |
| 2432 | 06/09/2026 | 17:10:00 | MB-L3-01Mainboard Lantai 3 | L3-SHT-01-RH | SHT20 1 Humidity | 41.40 | %RH |
| 2433 | 06/09/2026 | 17:10:00 | MB-L3-01Mainboard Lantai 3 | L3-AI-01 | Analog Input 1 | 3.12 | V |
| 2434 | 06/09/2026 | 17:10:00 | MB-L3-01Mainboard Lantai 3 | L3-RAD-01 | Radiation 1 | 1.00 | W/m² |
| 2435 | 06/09/2026 | 17:10:00 | MB-L3-01Mainboard Lantai 3 | L3-RAD-02 | Radiation 2 | 1.00 | W/m² |
| 2436 | 06/09/2026 | 17:09:00 | MB-L3-01Mainboard Lantai 3 | L3-LUX-01 | Illuminance / LUX 1 | 82.20 | lux |
| 2437 | 06/09/2026 | 17:09:00 | MB-L3-01Mainboard Lantai 3 | L3-LUX-06 | Illuminance / LUX 6 | 275.20 | lux |
| 2438 | 06/09/2026 | 17:09:00 | MB-L3-01Mainboard Lantai 3 | L3-LUX-03 | Illuminance / LUX 3 | 136.70 | lux |
| 2439 | 06/09/2026 | 17:09:00 | MB-L3-01Mainboard Lantai 3 | L3-LUX-04 | Illuminance / LUX 4 | 78.50 | lux |
| 2440 | 06/09/2026 | 17:09:00 | MB-L3-01Mainboard Lantai 3 | L3-SHT-02-RH | SHT20 2 Humidity | 41.10 | %RH |
| 2441 | 06/09/2026 | 17:09:00 | MB-L3-01Mainboard Lantai 3 | L3-SHT-03-T | SHT20 3 Temperature | 29.90 | °C |
| 2442 | 06/09/2026 | 17:09:00 | MB-L3-01Mainboard Lantai 3 | L3-AI-06 | Analog Input 6 | 3.12 | V |
| 2443 | 06/09/2026 | 17:09:00 | MB-L3-01Mainboard Lantai 3 | L3-SHT-03-RH | SHT20 3 Humidity | 41.60 | %RH |
| 2444 | 06/09/2026 | 17:09:00 | MB-L3-01Mainboard Lantai 3 | L3-AI-05 | Analog Input 5 | 3.12 | V |
| 2445 | 06/09/2026 | 17:09:00 | MB-L3-01Mainboard Lantai 3 | L3-AI-04 | Analog Input 4 | 3.12 | V |
| 2446 | 06/09/2026 | 17:09:00 | MB-L3-01Mainboard Lantai 3 | L3-SHT-01-T | SHT20 1 Temperature | 29.90 | °C |
| 2447 | 06/09/2026 | 17:09:00 | MB-L3-01Mainboard Lantai 3 | L3-SHT-02-T | SHT20 2 Temperature | 29.90 | °C |
| 2448 | 06/09/2026 | 17:09:00 | MB-L3-01Mainboard Lantai 3 | L3-AI-03 | Analog Input 3 | 3.12 | V |
| 2449 | 06/09/2026 | 17:09:00 | MB-L3-01Mainboard Lantai 3 | L3-AI-02 | Analog Input 2 | 3.12 | V |
| 2450 | 06/09/2026 | 17:09:00 | MB-L3-01Mainboard Lantai 3 | L3-SHT-01-RH | SHT20 1 Humidity | 41.30 | %RH |
| 2451 | 06/09/2026 | 17:09:00 | MB-L3-01Mainboard Lantai 3 | L3-AI-01 | Analog Input 1 | 3.12 | V |
| 2452 | 06/09/2026 | 17:09:00 | MB-L3-01Mainboard Lantai 3 | L3-RAD-01 | Radiation 1 | 1.00 | W/m² |
| 2453 | 06/09/2026 | 17:09:00 | MB-L3-01Mainboard Lantai 3 | L3-RAD-02 | Radiation 2 | 1.00 | W/m² |
| 2454 | 06/09/2026 | 17:09:00 | MB-L3-01Mainboard Lantai 3 | L3-LUX-02 | Illuminance / LUX 2 | 119.40 | lux |
| 2455 | 06/09/2026 | 17:09:00 | MB-L3-01Mainboard Lantai 3 | L3-LUX-05 | Illuminance / LUX 5 | 380.70 | lux |
| 2456 | 06/09/2026 | 17:08:00 | MB-L3-01Mainboard Lantai 3 | L3-AI-05 | Analog Input 5 | 3.12 | V |
| 2457 | 06/09/2026 | 17:08:00 | MB-L3-01Mainboard Lantai 3 | L3-AI-04 | Analog Input 4 | 3.12 | V |
| 2458 | 06/09/2026 | 17:08:00 | MB-L3-01Mainboard Lantai 3 | L3-SHT-01-T | SHT20 1 Temperature | 29.90 | °C |
| 2459 | 06/09/2026 | 17:08:00 | MB-L3-01Mainboard Lantai 3 | L3-SHT-02-T | SHT20 2 Temperature | 30.00 | °C |
| 2460 | 06/09/2026 | 17:08:00 | MB-L3-01Mainboard Lantai 3 | L3-AI-03 | Analog Input 3 | 3.12 | V |
| 2461 | 06/09/2026 | 17:08:00 | MB-L3-01Mainboard Lantai 3 | L3-AI-02 | Analog Input 2 | 3.12 | V |
| 2462 | 06/09/2026 | 17:08:00 | MB-L3-01Mainboard Lantai 3 | L3-SHT-01-RH | SHT20 1 Humidity | 41.30 | %RH |
| 2463 | 06/09/2026 | 17:08:00 | MB-L3-01Mainboard Lantai 3 | L3-AI-01 | Analog Input 1 | 3.12 | V |
| 2464 | 06/09/2026 | 17:08:00 | MB-L3-01Mainboard Lantai 3 | L3-RAD-01 | Radiation 1 | 1.00 | W/m² |
| 2465 | 06/09/2026 | 17:08:00 | MB-L3-01Mainboard Lantai 3 | L3-RAD-02 | Radiation 2 | 1.00 | W/m² |
| 2466 | 06/09/2026 | 17:08:00 | MB-L3-01Mainboard Lantai 3 | L3-LUX-02 | Illuminance / LUX 2 | 123.50 | lux |
| 2467 | 06/09/2026 | 17:08:00 | MB-L3-01Mainboard Lantai 3 | L3-LUX-05 | Illuminance / LUX 5 | 391.10 | lux |
| 2468 | 06/09/2026 | 17:08:00 | MB-L3-01Mainboard Lantai 3 | L3-LUX-01 | Illuminance / LUX 1 | 85.50 | lux |
| 2469 | 06/09/2026 | 17:08:00 | MB-L3-01Mainboard Lantai 3 | L3-LUX-06 | Illuminance / LUX 6 | 287.20 | lux |
| 2470 | 06/09/2026 | 17:08:00 | MB-L3-01Mainboard Lantai 3 | L3-LUX-03 | Illuminance / LUX 3 | 139.60 | lux |
| 2471 | 06/09/2026 | 17:08:00 | MB-L3-01Mainboard Lantai 3 | L3-LUX-04 | Illuminance / LUX 4 | 79.90 | lux |
| 2472 | 06/09/2026 | 17:08:00 | MB-L3-01Mainboard Lantai 3 | L3-SHT-02-RH | SHT20 2 Humidity | 41.10 | %RH |
| 2473 | 06/09/2026 | 17:08:00 | MB-L3-01Mainboard Lantai 3 | L3-SHT-03-T | SHT20 3 Temperature | 29.90 | °C |
| 2474 | 06/09/2026 | 17:08:00 | MB-L3-01Mainboard Lantai 3 | L3-AI-06 | Analog Input 6 | 3.12 | V |
| 2475 | 06/09/2026 | 17:08:00 | MB-L3-01Mainboard Lantai 3 | L3-SHT-03-RH | SHT20 3 Humidity | 41.40 | %RH |
| 2476 | 06/09/2026 | 17:07:00 | MB-L3-01Mainboard Lantai 3 | L3-AI-03 | Analog Input 3 | 3.12 | V |
| 2477 | 06/09/2026 | 17:07:00 | MB-L3-01Mainboard Lantai 3 | L3-AI-02 | Analog Input 2 | 3.12 | V |
| 2478 | 06/09/2026 | 17:07:00 | MB-L3-01Mainboard Lantai 3 | L3-SHT-01-RH | SHT20 1 Humidity | 41.10 | %RH |
| 2479 | 06/09/2026 | 17:07:00 | MB-L3-01Mainboard Lantai 3 | L3-AI-01 | Analog Input 1 | 3.12 | V |
| 2480 | 06/09/2026 | 17:07:00 | MB-L3-01Mainboard Lantai 3 | L3-RAD-01 | Radiation 1 | 1.00 | W/m² |
| 2481 | 06/09/2026 | 17:07:00 | MB-L3-01Mainboard Lantai 3 | L3-RAD-02 | Radiation 2 | 1.00 | W/m² |
| 2482 | 06/09/2026 | 17:07:00 | MB-L3-01Mainboard Lantai 3 | L3-LUX-02 | Illuminance / LUX 2 | 128.50 | lux |
| 2483 | 06/09/2026 | 17:07:00 | MB-L3-01Mainboard Lantai 3 | L3-LUX-05 | Illuminance / LUX 5 | 403.00 | lux |
| 2484 | 06/09/2026 | 17:07:00 | MB-L3-01Mainboard Lantai 3 | L3-LUX-01 | Illuminance / LUX 1 | 89.20 | lux |
| 2485 | 06/09/2026 | 17:07:00 | MB-L3-01Mainboard Lantai 3 | L3-LUX-06 | Illuminance / LUX 6 | 299.50 | lux |
| 2486 | 06/09/2026 | 17:07:00 | MB-L3-01Mainboard Lantai 3 | L3-LUX-03 | Illuminance / LUX 3 | 143.50 | lux |
| 2487 | 06/09/2026 | 17:07:00 | MB-L3-01Mainboard Lantai 3 | L3-LUX-04 | Illuminance / LUX 4 | 82.30 | lux |
| 2488 | 06/09/2026 | 17:07:00 | MB-L3-01Mainboard Lantai 3 | L3-SHT-02-RH | SHT20 2 Humidity | 41.10 | %RH |
| 2489 | 06/09/2026 | 17:07:00 | MB-L3-01Mainboard Lantai 3 | L3-SHT-03-T | SHT20 3 Temperature | 29.90 | °C |
| 2490 | 06/09/2026 | 17:07:00 | MB-L3-01Mainboard Lantai 3 | L3-AI-06 | Analog Input 6 | 3.12 | V |
| 2491 | 06/09/2026 | 17:07:00 | MB-L3-01Mainboard Lantai 3 | L3-SHT-03-RH | SHT20 3 Humidity | 41.40 | %RH |
| 2492 | 06/09/2026 | 17:07:00 | MB-L3-01Mainboard Lantai 3 | L3-AI-05 | Analog Input 5 | 3.12 | V |
| 2493 | 06/09/2026 | 17:07:00 | MB-L3-01Mainboard Lantai 3 | L3-AI-04 | Analog Input 4 | 3.12 | V |
| 2494 | 06/09/2026 | 17:07:00 | MB-L3-01Mainboard Lantai 3 | L3-SHT-01-T | SHT20 1 Temperature | 30.00 | °C |
| 2495 | 06/09/2026 | 17:07:00 | MB-L3-01Mainboard Lantai 3 | L3-SHT-02-T | SHT20 2 Temperature | 30.00 | °C |
| 2496 | 06/09/2026 | 17:06:00 | MB-L3-01Mainboard Lantai 3 | L3-AI-01 | Analog Input 1 | 3.12 | V |
| 2497 | 06/09/2026 | 17:06:00 | MB-L3-01Mainboard Lantai 3 | L3-RAD-01 | Radiation 1 | 1.00 | W/m² |
| 2498 | 06/09/2026 | 17:06:00 | MB-L3-01Mainboard Lantai 3 | L3-RAD-02 | Radiation 2 | 1.00 | W/m² |
| 2499 | 06/09/2026 | 17:06:00 | MB-L3-01Mainboard Lantai 3 | L3-LUX-02 | Illuminance / LUX 2 | 134.30 | lux |
| 2500 | 06/09/2026 | 17:06:00 | MB-L3-01Mainboard Lantai 3 | L3-LUX-05 | Illuminance / LUX 5 | 416.00 | lux |
Menampilkan maksimal 100 data per halaman